createdAt,value
2022-08-06T00:00:06.839Z,23.22
2022-08-06T00:03:04.901Z,23.21
2022-08-06T00:05:36.942Z,23.20
2022-08-06T00:08:08.830Z,23.18
2022-08-06T00:10:38.338Z,23.16
2022-08-06T00:13:14.646Z,23.13
2022-08-06T00:16:09.022Z,23.11
2022-08-06T00:18:32.572Z,23.09
2022-08-06T00:21:01.451Z,23.08
2022-08-06T00:23:35.181Z,23.07
2022-08-06T00:26:19.054Z,23.07
2022-08-06T00:28:48.520Z,23.07
2022-08-06T00:31:17.089Z,23.06
2022-08-06T00:33:56.556Z,23.05
2022-08-06T00:36:28.176Z,23.04
2022-08-06T00:39:07.512Z,23.01
2022-08-06T00:41:42.483Z,22.97
2022-08-06T00:44:30.863Z,22.94
2022-08-06T00:47:01.131Z,22.92
2022-08-06T00:49:49.110Z,22.89
2022-08-06T00:52:23.142Z,22.88
2022-08-06T00:54:55.253Z,22.87
2022-08-06T00:57:26.909Z,22.86
2022-08-06T00:59:59.078Z,22.85
2022-08-06T01:02:30.312Z,22.84
2022-08-06T01:05:07.263Z,22.84
2022-08-06T01:07:51.876Z,22.83
2022-08-06T01:10:27.276Z,22.85
2022-08-06T01:13:00.255Z,22.85
2022-08-06T01:16:07.798Z,22.87
2022-08-06T01:18:30.544Z,22.89
2022-08-06T01:21:58.579Z,22.92
2022-08-06T01:24:03.195Z,22.96
2022-08-06T01:26:45.232Z,23.00
2022-08-06T01:29:15.984Z,23.03
2022-08-06T01:31:44.735Z,23.04
2022-08-06T01:34:31.215Z,23.06
2022-08-06T01:37:10.851Z,23.05
2022-08-06T01:40:01.729Z,23.02
2022-08-06T01:42:34.949Z,22.97
2022-08-06T01:45:10.157Z,22.91
2022-08-06T01:47:53.773Z,22.85
2022-08-06T01:50:41.390Z,22.78
2022-08-06T01:53:30.128Z,22.71
2022-08-06T01:56:13.736Z,22.63
2022-08-06T01:58:56.869Z,22.57
2022-08-06T02:01:28.137Z,22.51
2022-08-06T02:04:20.839Z,22.45
2022-08-06T02:06:52.530Z,22.40
2022-08-06T02:09:27.751Z,22.37
2022-08-06T02:12:07.241Z,22.35
2022-08-06T02:14:43.516Z,22.35
2022-08-06T02:17:15.572Z,22.35
2022-08-06T02:20:03.988Z,22.35
2022-08-06T02:22:42.372Z,22.36
2022-08-06T02:25:21.792Z,22.36
2022-08-06T02:28:00.137Z,22.37
2022-08-06T02:30:42.526Z,22.36
2022-08-06T02:33:18.109Z,22.35
2022-08-06T02:35:52.313Z,22.34
2022-08-06T02:38:28.576Z,22.33
2022-08-06T02:41:23.749Z,22.31
2022-08-06T02:44:07.711Z,22.28
2022-08-06T02:46:51.885Z,22.27
2022-08-06T02:49:29.328Z,22.26
2022-08-06T02:52:32.624Z,22.26
2022-08-06T02:55:15.462Z,22.27
2022-08-06T02:57:58.293Z,22.27
2022-08-06T03:00:29.842Z,22.29
2022-08-06T03:03:02.924Z,22.32
2022-08-06T03:05:55.661Z,22.34
2022-08-06T03:08:28.218Z,22.38
2022-08-06T03:10:59.837Z,22.40
2022-08-06T03:13:36.290Z,22.41
2022-08-06T03:16:23.735Z,22.42
2022-08-06T03:19:54.764Z,22.42
2022-08-06T03:21:55.486Z,22.43
2022-08-06T03:24:27.920Z,22.43
2022-08-06T03:27:00.691Z,22.43
2022-08-06T03:29:30.597Z,22.42
2022-08-06T03:32:13.541Z,22.43
2022-08-06T03:34:52.322Z,22.44
2022-08-06T03:37:45.249Z,22.45
2022-08-06T03:40:14.148Z,22.48
2022-08-06T03:42:43.934Z,22.52
2022-08-06T03:45:35.778Z,22.57
2022-08-06T03:48:07.131Z,22.64
2022-08-06T03:50:43.098Z,22.73
2022-08-06T03:53:25.046Z,22.85
2022-08-06T03:55:59.605Z,22.97
2022-08-06T03:58:30.106Z,23.07
2022-08-06T04:01:11.024Z,23.15
2022-08-06T04:03:41.275Z,23.23
2022-08-06T04:06:16.751Z,23.30
2022-08-06T04:08:50.544Z,23.38
2022-08-06T04:12:12.923Z,23.44
2022-08-06T04:14:10.720Z,23.51
2022-08-06T04:16:41.695Z,23.59
2022-08-06T04:19:15.767Z,23.66
2022-08-06T04:23:08.560Z,23.75
2022-08-06T04:24:34.238Z,23.84
2022-08-06T04:27:09.703Z,23.91
2022-08-06T04:29:56.750Z,24.00
2022-08-06T04:32:32.275Z,24.12
2022-08-06T04:36:07.268Z,24.28
2022-08-06T04:37:57.013Z,24.44
2022-08-06T04:40:35.795Z,24.66
2022-08-06T04:43:12.316Z,24.91
2022-08-06T04:46:18.587Z,25.18
2022-08-06T04:48:34.466Z,25.45
2022-08-06T04:51:10.439Z,25.71
2022-08-06T04:53:58.458Z,26.02
2022-08-06T04:56:33.312Z,26.30
2022-08-06T04:59:07.846Z,26.61
2022-08-06T05:01:40.685Z,26.91
2022-08-06T05:04:27.002Z,27.23
2022-08-06T05:07:10.560Z,27.50
2022-08-06T05:09:43.916Z,27.73
2022-08-06T05:12:34.533Z,27.98
2022-08-06T05:15:38.132Z,28.25
2022-08-06T05:19:21.256Z,28.56
2022-08-06T05:21:22.138Z,28.81
2022-08-06T05:24:11.484Z,29.02
2022-08-06T05:26:40.538Z,29.14
2022-08-06T05:29:12.337Z,29.23
2022-08-06T05:31:41.434Z,29.33
2022-08-06T05:34:16.470Z,29.41
2022-08-06T05:36:48.462Z,29.51
2022-08-06T05:39:57.327Z,29.61
2022-08-06T05:42:10.182Z,29.71
2022-08-06T05:44:39.689Z,29.79
2022-08-06T05:47:14.534Z,29.94
2022-08-06T05:49:58.547Z,30.09
2022-08-06T05:52:55.425Z,30.24
2022-08-06T05:55:38.510Z,30.35
2022-08-06T05:58:21.361Z,30.49
2022-08-06T06:00:55.153Z,30.64
2022-08-06T06:03:33.537Z,30.76
2022-08-06T06:06:17.522Z,30.87
2022-08-06T06:08:57.864Z,30.97
2022-08-06T06:11:55.192Z,31.11
2022-08-06T06:14:41.898Z,31.28
2022-08-06T06:17:40.130Z,31.52
2022-08-06T06:20:57.904Z,31.77
2022-08-06T06:24:12.836Z,32.00
2022-08-06T06:26:51.905Z,32.24
2022-08-06T06:30:07.262Z,32.39
2022-08-06T06:32:49.166Z,32.59
2022-08-06T06:35:58.394Z,32.76
2022-08-06T06:38:43.528Z,32.97
2022-08-06T06:41:37.930Z,33.11
2022-08-06T06:44:17.302Z,33.23
2022-08-06T06:46:58.929Z,33.37
2022-08-06T06:50:00.050Z,33.48
2022-08-06T06:54:04.645Z,33.63
2022-08-06T06:57:19.480Z,33.76
2022-08-06T07:00:04.825Z,33.90
2022-08-06T07:02:47.667Z,34.00
2022-08-06T07:06:02.129Z,34.10
2022-08-06T07:09:15.259Z,34.23
2022-08-06T07:12:03.288Z,34.38
2022-08-06T07:14:36.270Z,34.48
2022-08-06T07:17:46.278Z,34.58
2022-08-06T07:20:00.789Z,34.61
2022-08-06T07:22:30.902Z,34.68
2022-08-06T07:25:06.370Z,34.83
2022-08-06T07:27:45.108Z,35.00
2022-08-06T07:30:25.631Z,35.20
2022-08-06T07:32:55.042Z,35.36
2022-08-06T07:35:25.496Z,35.45
2022-08-06T07:37:56.113Z,35.49
2022-08-06T07:40:32.448Z,35.55
2022-08-06T07:43:23.821Z,35.66
2022-08-06T07:45:56.598Z,35.78
2022-08-06T07:48:32.484Z,35.88
2022-08-06T07:51:05.044Z,36.00
2022-08-06T07:53:52.919Z,36.12
2022-08-06T07:56:27.609Z,36.25
2022-08-06T07:58:59.335Z,36.39
2022-08-06T08:01:36.520Z,36.51
2022-08-06T08:04:34.586Z,36.64
2022-08-06T08:07:12.929Z,36.75
2022-08-06T08:10:01.726Z,36.88
2022-08-06T08:12:35.253Z,37.06
2022-08-06T08:15:17.596Z,37.18
2022-08-06T08:17:57.712Z,37.20
2022-08-06T08:20:34.402Z,37.18
2022-08-06T08:23:08.536Z,37.21
2022-08-06T08:25:57.676Z,37.14
2022-08-06T08:28:27.506Z,37.23
2022-08-06T08:31:00.264Z,37.40
2022-08-06T08:33:44.726Z,37.54
2022-08-06T08:36:15.179Z,37.18
2022-08-06T08:38:45.606Z,36.91
2022-08-06T08:41:23.101Z,36.96
2022-08-06T08:44:13.089Z,37.19
2022-08-06T08:46:57.618Z,37.11
2022-08-06T08:49:47.344Z,36.94
2022-08-06T08:52:18.780Z,37.11
2022-08-06T08:54:54.942Z,37.43
2022-08-06T08:59:02.534Z,37.63
2022-08-06T09:00:22.756Z,37.82
2022-08-06T09:02:57.248Z,37.95
2022-08-06T09:05:26.687Z,37.69
2022-08-06T09:08:04.344Z,37.42
2022-08-06T09:10:33.428Z,37.65
2022-08-06T09:13:22.791Z,37.98
2022-08-06T09:15:56.433Z,38.24
2022-08-06T09:18:28.187Z,38.31
2022-08-06T09:21:01.853Z,38.51
2022-08-06T09:23:57.642Z,38.67
2022-08-06T09:26:52.449Z,38.60
2022-08-06T09:29:23.690Z,38.65
2022-08-06T09:32:08.570Z,38.68
2022-08-06T09:34:50.230Z,38.87
2022-08-06T09:37:30.335Z,39.07
2022-08-06T09:40:20.011Z,39.29
2022-08-06T09:42:51.931Z,39.42
2022-08-06T09:45:42.112Z,39.63
2022-08-06T09:48:17.307Z,39.76
2022-08-06T09:50:51.466Z,39.56
2022-08-06T09:53:22.662Z,39.09
2022-08-06T09:55:57.850Z,38.75
2022-08-06T09:59:33.503Z,38.78
2022-08-06T10:04:04.334Z,38.96
2022-08-06T10:07:06.370Z,39.20
2022-08-06T10:09:41.439Z,39.43
2022-08-06T10:12:26.521Z,39.58
2022-08-06T10:14:56.241Z,39.52
2022-08-06T10:17:26.108Z,39.65
2022-08-06T10:20:18.405Z,39.64
2022-08-06T10:22:58.836Z,39.45
2022-08-06T10:25:31.111Z,39.19
2022-08-06T10:28:15.640Z,38.89
2022-08-06T10:30:45.671Z,38.62
2022-08-06T10:33:22.538Z,38.61
2022-08-06T10:36:08.695Z,38.79
2022-08-06T10:38:52.522Z,38.75
2022-08-06T10:41:59.582Z,38.59
2022-08-06T10:45:13.393Z,38.39
2022-08-06T10:48:59.271Z,37.92
2022-08-06T10:50:44.624Z,37.51
2022-08-06T10:54:01.355Z,37.20
2022-08-06T10:57:11.957Z,37.07
2022-08-06T10:59:53.666Z,37.12
2022-08-06T11:02:57.027Z,37.16
2022-08-06T11:05:48.112Z,37.42
2022-08-06T11:08:56.184Z,37.96
2022-08-06T11:11:42.764Z,38.05
2022-08-06T11:14:15.048Z,38.02
2022-08-06T11:16:59.091Z,38.33
2022-08-06T11:19:46.667Z,38.35
2022-08-06T11:22:38.880Z,38.14
2022-08-06T11:25:25.553Z,37.98
2022-08-06T11:28:05.744Z,37.91
2022-08-06T11:30:52.320Z,38.16
2022-08-06T11:33:36.699Z,38.19
2022-08-06T11:36:09.761Z,37.84
2022-08-06T11:38:51.727Z,37.53
2022-08-06T11:41:51.752Z,37.25
2022-08-06T11:44:27.359Z,36.94
2022-08-06T11:47:30.631Z,36.69
2022-08-06T11:50:27.615Z,36.43
2022-08-06T11:52:56.588Z,36.24
2022-08-06T11:55:27.063Z,36.08
2022-08-06T11:58:26.154Z,36.30
2022-08-06T12:00:59.744Z,36.86
2022-08-06T12:03:45.039Z,37.42
2022-08-06T12:06:29.207Z,38.05
2022-08-06T12:09:23.841Z,38.55
2022-08-06T12:12:23.866Z,39.11
2022-08-06T12:14:57.369Z,39.49
2022-08-06T12:17:44.692Z,39.88
2022-08-06T12:20:33.952Z,40.33
2022-08-06T12:23:07.218Z,40.65
2022-08-06T12:25:45.017Z,40.48
2022-08-06T12:28:18.309Z,40.17
2022-08-06T12:30:52.301Z,39.93
2022-08-06T12:33:24.858Z,39.81
2022-08-06T12:36:02.340Z,39.94
2022-08-06T12:38:34.244Z,39.93
2022-08-06T12:42:05.863Z,39.65
2022-08-06T12:46:05.942Z,39.29
2022-08-06T12:48:23.111Z,39.24
2022-08-06T12:51:15.832Z,39.22
2022-08-06T12:53:54.894Z,38.98
2022-08-06T12:56:31.950Z,38.75
2022-08-06T12:59:05.677Z,38.29
2022-08-06T13:02:10.131Z,38.02
2022-08-06T13:04:31.380Z,37.72
2022-08-06T13:07:02.925Z,37.40
2022-08-06T13:09:35.789Z,37.02
2022-08-06T13:14:02.105Z,36.57
2022-08-06T13:15:22.662Z,36.12
2022-08-06T13:18:41.425Z,36.07
2022-08-06T13:21:16.273Z,36.19
2022-08-06T13:23:49.430Z,36.18
2022-08-06T13:26:29.952Z,36.03
2022-08-06T13:30:34.536Z,35.95
2022-08-06T13:32:19.128Z,36.07
2022-08-06T13:34:59.355Z,36.45
2022-08-06T13:38:16.496Z,36.66
2022-08-06T13:40:56.752Z,36.57
2022-08-06T13:43:55.160Z,36.44
2022-08-06T13:46:28.840Z,36.29
2022-08-06T13:49:01.554Z,36.15
2022-08-06T13:51:35.344Z,36.06
2022-08-06T13:54:14.137Z,36.13
2022-08-06T13:56:48.801Z,36.46
2022-08-06T13:59:40.336Z,36.69
2022-08-06T14:02:12.746Z,36.81
2022-08-06T14:04:50.662Z,37.08
2022-08-06T14:07:20.832Z,37.32
2022-08-06T14:10:08.090Z,37.60
2022-08-06T14:12:40.371Z,37.95
2022-08-06T14:15:12.872Z,38.23
2022-08-06T14:17:45.928Z,38.59
2022-08-06T14:20:18.816Z,38.97
2022-08-06T14:22:55.530Z,39.37
2022-08-06T14:25:28.443Z,39.69
2022-08-06T14:27:58.485Z,39.89
2022-08-06T14:31:29.689Z,39.91
2022-08-06T14:35:04.730Z,39.93
2022-08-06T14:38:34.615Z,40.20
2022-08-06T14:41:50.292Z,40.22
2022-08-06T14:44:31.153Z,39.89
2022-08-06T14:47:00.291Z,39.45
2022-08-06T14:49:33.555Z,39.01
2022-08-06T14:52:24.121Z,38.46
2022-08-06T14:54:55.989Z,38.01
2022-08-06T14:58:03.891Z,37.54
2022-08-06T15:00:34.888Z,37.00
2022-08-06T15:03:13.548Z,36.66
2022-08-06T15:06:00.082Z,36.49
2022-08-06T15:08:34.182Z,36.41
2022-08-06T15:11:06.400Z,36.53
2022-08-06T15:13:43.557Z,36.74
2022-08-06T15:16:47.884Z,37.00
2022-08-06T15:19:21.018Z,37.31
2022-08-06T15:22:00.318Z,37.58
2022-08-06T15:24:30.634Z,37.72
2022-08-06T15:26:59.333Z,37.91
2022-08-06T15:29:34.689Z,38.18
2022-08-06T15:32:17.630Z,38.45
2022-08-06T15:34:48.834Z,38.58
2022-08-06T15:38:18.555Z,38.67
2022-08-06T15:41:52.166Z,38.77
2022-08-06T15:44:23.792Z,38.86
2022-08-06T15:46:59.677Z,38.92
2022-08-06T15:50:00.904Z,38.98
2022-08-06T15:52:18.203Z,39.02
2022-08-06T15:54:47.809Z,39.07
2022-08-06T15:57:19.818Z,39.07
2022-08-06T16:00:17.754Z,39.10
2022-08-06T16:02:50.689Z,39.07
2022-08-06T16:06:25.918Z,39.00
2022-08-06T16:08:59.587Z,38.63
2022-08-06T16:11:50.849Z,38.48
2022-08-06T16:14:19.906Z,38.32
2022-08-06T16:17:01.952Z,38.16
2022-08-06T16:19:30.843Z,38.01
2022-08-06T16:22:03.113Z,37.91
2022-08-06T16:24:32.420Z,37.78
2022-08-06T16:27:05.196Z,37.58
2022-08-06T16:29:35.817Z,37.38
2022-08-06T16:32:05.089Z,37.24
2022-08-06T16:34:37.107Z,37.07
2022-08-06T16:37:28.567Z,36.89
2022-08-06T16:42:44.594Z,36.50
2022-08-06T16:45:19.390Z,36.22
2022-08-06T16:48:21.804Z,36.01
2022-08-06T16:50:42.212Z,35.83
2022-08-06T16:54:07.779Z,35.66
2022-08-06T16:56:01.658Z,35.44
2022-08-06T16:58:34.341Z,35.21
2022-08-06T17:02:14.306Z,34.94
2022-08-06T17:03:59.045Z,34.49
2022-08-06T17:09:21.251Z,33.63
2022-08-06T17:11:58.250Z,33.31
2022-08-06T17:14:33.010Z,32.97
2022-08-06T17:20:01.160Z,32.36
2022-08-06T17:22:32.139Z,32.06
2022-08-06T17:25:01.133Z,31.75
2022-08-06T17:27:43.527Z,31.49
2022-08-06T17:30:19.055Z,31.23
2022-08-06T17:32:48.482Z,31.01
2022-08-06T17:35:17.794Z,30.80
2022-08-06T17:37:51.593Z,30.58
2022-08-06T17:40:31.185Z,30.39
2022-08-06T17:43:12.525Z,30.19
2022-08-06T17:45:52.620Z,29.99
2022-08-06T17:48:38.468Z,29.79
2022-08-06T17:51:09.727Z,29.60
2022-08-06T17:53:53.800Z,29.42
2022-08-06T17:56:30.806Z,29.24
2022-08-06T17:59:59.876Z,29.08
2022-08-06T18:03:50.312Z,28.86
2022-08-06T18:07:12.227Z,28.62
2022-08-06T18:10:16.410Z,28.40
2022-08-06T18:12:48.569Z,28.20
2022-08-06T18:20:10.145Z,27.75
2022-08-06T18:23:39.763Z,27.51
2022-08-06T18:27:53.789Z,27.30
2022-08-06T18:31:00.192Z,27.06
2022-08-06T18:34:29.898Z,26.88
2022-08-06T18:37:05.610Z,26.70
2022-08-06T18:40:20.277Z,26.59
2022-08-06T18:42:42.459Z,26.48
2022-08-06T18:45:16.988Z,26.37
2022-08-06T18:47:49.670Z,26.26
2022-08-06T18:50:33.367Z,26.15
2022-08-06T18:53:02.095Z,26.06
2022-08-06T18:55:53.883Z,25.96
2022-08-06T18:58:20.090Z,25.86
2022-08-06T19:00:52.682Z,25.77
2022-08-06T19:03:37.754Z,25.67
2022-08-06T19:06:11.308Z,25.58
2022-08-06T19:08:41.121Z,25.49
2022-08-06T19:11:09.728Z,25.41
2022-08-06T19:14:17.163Z,25.33
2022-08-06T19:16:30.739Z,25.26
2022-08-06T19:18:59.730Z,25.18
2022-08-06T19:21:28.623Z,25.12
2022-08-06T19:24:02.803Z,25.04
2022-08-06T19:26:33.584Z,24.97
2022-08-06T19:29:02.673Z,24.89
2022-08-06T19:31:41.857Z,24.82
2022-08-06T19:34:14.297Z,24.73
2022-08-06T19:36:45.388Z,24.63
2022-08-06T19:39:53.950Z,24.51
2022-08-06T19:42:13.390Z,24.40
2022-08-06T19:45:04.214Z,24.26
2022-08-06T19:47:47.714Z,24.17
2022-08-06T19:50:19.393Z,24.09
2022-08-06T19:52:49.849Z,24.03
2022-08-06T19:56:06.477Z,23.92
2022-08-06T19:58:19.910Z,23.78
2022-08-06T20:01:32.576Z,23.68
2022-08-06T20:03:57.884Z,23.60
2022-08-06T20:06:29.549Z,23.55
2022-08-06T20:09:29.332Z,23.54
2022-08-06T20:12:11.182Z,23.50
2022-08-06T20:14:40.445Z,23.50
2022-08-06T20:17:12.967Z,23.50
2022-08-06T20:20:06.711Z,23.53
2022-08-06T20:22:32.049Z,23.56
2022-08-06T20:25:17.943Z,23.58
2022-08-06T20:29:10.725Z,23.60
2022-08-06T20:30:39.891Z,23.62
2022-08-06T20:33:23.640Z,23.65
2022-08-06T20:35:57.852Z,23.65
2022-08-06T20:38:33.538Z,23.64
2022-08-06T20:41:58.263Z,23.64
2022-08-06T20:44:25.407Z,23.63
2022-08-06T20:47:57.266Z,23.63
2022-08-06T20:50:28.112Z,23.64
2022-08-06T20:52:57.921Z,23.64
2022-08-06T20:55:28.493Z,23.65
2022-08-06T20:58:07.300Z,23.66
2022-08-06T21:00:36.290Z,23.67
2022-08-06T21:05:11.458Z,23.68
2022-08-06T21:05:53.975Z,23.68
2022-08-06T21:08:26.574Z,23.68
2022-08-06T21:11:00.470Z,23.68
2022-08-06T21:13:36.731Z,23.67
2022-08-06T21:16:28.737Z,23.65
2022-08-06T21:19:07.456Z,23.65
2022-08-06T21:21:39.052Z,23.63
2022-08-06T21:24:08.979Z,23.63
2022-08-06T21:26:38.157Z,23.61
2022-08-06T21:29:14.517Z,23.58
2022-08-06T21:31:59.045Z,23.56
2022-08-06T21:34:30.648Z,23.53
2022-08-06T21:37:02.100Z,23.51
2022-08-06T21:39:56.616Z,23.48
2022-08-06T21:42:27.114Z,23.44
2022-08-06T21:44:59.489Z,23.42
2022-08-06T21:47:36.592Z,23.39
2022-08-06T21:50:20.063Z,23.36
2022-08-06T21:52:55.764Z,23.32
2022-08-06T21:56:38.512Z,23.28
2022-08-06T21:58:13.308Z,23.23
2022-08-06T22:00:53.950Z,23.20
2022-08-06T22:04:34.702Z,23.15
2022-08-06T22:06:20.661Z,23.09
2022-08-06T22:09:01.060Z,23.03
2022-08-06T22:12:37.668Z,22.97
2022-08-06T22:14:29.000Z,22.91
2022-08-06T22:17:06.075Z,22.85
2022-08-06T22:19:39.264Z,22.78
2022-08-06T22:22:11.335Z,22.73
2022-08-06T22:24:49.927Z,22.70
2022-08-06T22:27:20.557Z,22.67
2022-08-06T22:30:08.833Z,22.63
2022-08-06T22:32:42.436Z,22.60
2022-08-06T22:35:14.299Z,22.56
2022-08-06T22:38:19.740Z,22.52
2022-08-06T22:40:38.444Z,22.48
2022-08-06T22:43:18.295Z,22.44
2022-08-06T22:46:04.672Z,22.39
2022-08-06T22:48:35.474Z,22.36
2022-08-06T22:51:15.753Z,22.32
2022-08-06T22:54:26.273Z,22.28
2022-08-06T22:56:38.366Z,22.21
2022-08-06T22:59:31.365Z,22.17
2022-08-06T23:02:07.609Z,22.12
2022-08-06T23:04:46.382Z,22.08
2022-08-06T23:07:21.409Z,22.06
2022-08-06T23:09:59.546Z,22.05
2022-08-06T23:12:31.314Z,22.05
2022-08-06T23:15:19.931Z,22.06
2022-08-06T23:18:00.349Z,22.07
2022-08-06T23:20:34.542Z,22.07
2022-08-06T23:23:04.819Z,22.09
2022-08-06T23:26:34.137Z,22.08
2022-08-06T23:34:00.238Z,22.04
2022-08-06T23:36:30.319Z,22.01
2022-08-06T23:38:59.050Z,21.99
2022-08-06T23:42:00.519Z,21.97
2022-08-06T23:44:18.417Z,21.95
2022-08-06T23:46:51.045Z,21.95
2022-08-06T23:49:27.349Z,21.95
2022-08-06T23:52:03.314Z,21.95
2022-08-06T23:54:33.522Z,21.96
2022-08-06T23:57:03.778Z,21.97
2022-08-06T23:59:45.327Z,21.99
